Hlavní strana
METAR-TAF:

METAR-TAF

Letiště :

Ittoqqortoormiit, Grónsko

zeměpisná šířka: 70-45N, zeměpisná délka: 022-39W, výška: 14 m

METAR: chybějící

Čas: 02:14 (03:14 UTC)

Předpověď počasí

Zpráva byla vytvořena před 11 hodinami a 19 minutami, v 15:55 UTC
Předpověď platná od 19 v 15 UTC do 19 v 17 UTC
Severní vítr 20 kt
Viditelnost 10 km a více
Polojasno ve výšce 2500 ft
Oblačno až skoro zataženo ve výšce 4500 ft
Dočasný
od 19 v 15 UTC do 19 v 17 UTC
Viditelnost: 6000 m
Oblačno až skoro zataženo ve výšce 2200 ft
slabé sněžení, nízko zvířený sníh

TAF: BGCO 191555Z 1915/1917 01020KT 9999 SCT025 BKN045 TEMPO 1915/1917 6000 -SN DRSN BKN022

Stav a předpovědi počasí z více než 4 000 letišť (zprávy METAR a TAF).

Červené a žluté tečky na mapě představují dostupné meteorologické stanice.

Když kurzor umístíte na tečku, zobrazí se název stanice.

Pak kliknutím zobrazíte stav a předpověď počasí.

Chcete-li změnit mapu, kliknutím na zelené tlačítko se znaménkem +mapu přiblížíte, kliknutím na zelené tlačítko se znaménkem – mapu oddálíte a kliknutím na zelené šipky přejdete na sousední mapy.


METAR-TAF: